Time;durP1;ratioP1;P1;durP2;ratioP2;P2;SDS_P1;SDS_P2;PMS_P1;PMS_P2;Temp;Humidity;BMP_temperature;BMP_pressure;BME280_temperature;BME280_humidity;BME280_pressure;Samples;Min_cycle;Max_cycle;Signal;HPM_P1;HPM_P2
2022/07/06 00:01:26;;;;;;;7.93;2.73;;;;;;;-145.69;100.00;71919.78;5073074;28;20199;-80
2022/07/06 00:03:53;;;;;;;6.23;1.63;;;;;;;-145.69;100.00;71947.66;5073291;28;20203;-80
2022/07/06 00:06:19;;;;;;;1.90;1.80;;;;;;;-145.69;100.00;71959.59;5073033;28;20692;-80
2022/07/06 00:08:47;;;;;;;2.00;1.70;;;;;;;-145.69;100.00;71967.56;5073082;28;20214;-81
2022/07/06 00:11:14;;;;;;;6.73;1.80;;;;;;;-145.69;100.00;71975.50;5072979;28;20684;-80
2022/07/06 00:13:40;;;;;;;3.30;1.60;;;;;;;-145.69;100.00;71971.53;5073053;28;20199;-81
2022/07/06 00:16:07;;;;;;;3.87;1.57;;;;;;;-145.69;100.00;71979.50;5073201;28;20209;-81
2022/07/06 00:18:33;;;;;;;2.23;1.80;;;;;;;-145.69;100.00;71975.50;5072829;28;20195;-80
2022/07/06 00:21:00;;;;;;;2.07;1.70;;;;;;;-145.69;100.00;71973.53;5072829;28;20202;-80
2022/07/06 00:23:26;;;;;;;5.70;2.10;;;;;;;-145.69;100.00;71963.56;5073116;28;20202;-80
2022/07/06 00:25:54;;;;;;;3.87;2.00;;;;;;;-145.69;100.00;71957.59;5072951;28;20206;-80
2022/07/06 00:28:20;;;;;;;5.63;1.63;;;;;;;-145.69;100.00;71959.59;5073035;28;20209;-80
2022/07/06 00:30:47;;;;;;;2.67;1.67;;;;;;;-145.69;100.00;71963.56;5072748;28;20194;-80
2022/07/06 00:33:13;;;;;;;5.90;2.00;;;;;;;-145.69;100.00;71975.50;5059326;28;20214;-80
2022/07/06 00:35:40;;;;;;;4.73;1.83;;;;;;;-145.69;100.00;71987.47;5052754;28;20199;-79
2022/07/06 00:38:06;;;;;;;6.90;2.07;;;;;;;-145.69;100.00;71993.44;5052843;28;20211;-80
2022/07/06 00:40:33;;;;;;;2.37;1.60;;;;;;;-145.69;100.00;71987.47;5052875;28;20206;-80
2022/07/06 00:43:01;;;;;;;2.53;1.53;;;;;;;-145.69;100.00;72003.38;5059606;28;20654;-80
2022/07/06 00:45:27;;;;;;;2.67;1.90;;;;;;;-145.69;100.00;72003.38;5072339;28;20190;-80
2022/07/06 00:47:54;;;;;;;2.00;1.80;;;;;;;-145.69;100.00;72009.34;5072408;28;20693;-79
2022/07/06 00:50:21;;;;;;;2.57;1.70;;;;;;;-145.69;100.00;72015.31;5072237;28;20194;-80
2022/07/06 00:52:49;;;;;;;3.30;2.00;;;;;;;-145.69;100.00;72009.34;5072764;28;20205;-80
2022/07/06 00:55:17;;;;;;;5.07;1.93;;;;;;;-145.69;100.00;72021.28;5074931;28;20207;-80
2022/07/06 00:57:43;;;;;;;4.87;1.80;;;;;;;-145.69;100.00;72005.38;5076727;28;20199;-80
2022/07/06 01:00:14;;;;;;;2.53;1.60;;;;;;;-145.69;100.00;72023.28;5076658;28;20214;-80
2022/07/06 01:02:41;;;;;;;5.73;1.90;;;;;;;-145.69;100.00;72031.25;5076571;28;20210;-80
2022/07/06 01:05:10;;;;;;;7.93;2.27;;;;;;;-145.69;100.00;72033.22;5076752;28;20209;-80
2022/07/06 01:07:37;;;;;;;3.77;2.07;;;;;;;-145.69;100.00;72013.31;5075925;28;20227;-80
2022/07/06 01:10:05;;;;;;;4.43;2.30;;;;;;;-145.69;100.00;72019.31;5076514;28;20230;-80
2022/07/06 01:12:33;;;;;;;3.57;1.97;;;;;;;-145.69;100.00;72029.25;5076428;28;20206;-80
2022/07/06 01:14:59;;;;;;;3.27;1.90;;;;;;;-145.69;100.00;72029.25;5076372;28;20210;-80
2022/07/06 01:17:27;;;;;;;4.23;1.80;;;;;;;-145.69;100.00;72043.19;5076388;28;20199;-79
2022/07/06 01:19:53;;;;;;;6.97;2.37;;;;;;;-145.69;100.00;72021.28;5076213;28;20328;-80
2022/07/06 01:22:21;;;;;;;5.60;1.97;;;;;;;-145.69;100.00;72025.28;5076338;28;20202;-81
2022/07/06 01:24:48;;;;;;;7.60;2.13;;;;;;;-145.69;100.00;72023.28;5076466;28;20198;-80
2022/07/06 01:27:14;;;;;;;2.97;2.27;;;;;;;-145.69;100.00;72023.28;5075874;28;20234;-80
2022/07/06 01:29:40;;;;;;;3.40;2.57;;;;;;;-145.69;100.00;72031.25;5075980;28;20222;-80
2022/07/06 01:32:07;;;;;;;5.33;2.47;;;;;;;-145.69;100.00;72023.28;5076242;28;20199;-80
2022/07/06 01:34:35;;;;;;;6.20;2.80;;;;;;;-145.69;100.00;72037.22;5076095;28;20209;-80
2022/07/06 01:37:01;;;;;;;3.60;2.53;;;;;;;-145.69;100.00;72041.19;5076124;28;20195;-80
2022/07/06 01:39:29;;;;;;;6.13;2.67;;;;;;;-145.69;100.00;72041.19;5075394;28;20203;-80
2022/07/06 01:41:55;;;;;;;13.27;2.53;;;;;;;-145.69;100.00;72049.16;5075733;28;20213;-80
2022/07/06 01:44:22;;;;;;;7.07;2.50;;;;;;;-145.69;100.00;72055.13;5075834;28;20202;-80
2022/07/06 01:46:48;;;;;;;5.60;2.73;;;;;;;-145.69;100.00;72063.09;5082701;28;20735;-80
2022/07/06 01:49:15;;;;;;;6.60;2.70;;;;;;;-145.69;100.00;72061.09;5055032;28;20238;-80
2022/07/06 01:51:41;;;;;;;5.93;2.50;;;;;;;-145.69;100.00;72075.03;5070347;28;20668;-81
2022/07/06 01:54:08;;;;;;;3.90;3.00;;;;;;;-145.69;100.00;72079.00;5074666;28;20201;-80
2022/07/06 01:56:35;;;;;;;7.17;2.90;;;;;;;-145.69;100.00;72067.06;5074456;28;20215;-80
2022/07/06 01:59:02;;;;;;;2.97;2.60;;;;;;;-145.69;100.00;72067.06;5074656;28;20560;-80
2022/07/06 02:01:28;;;;;;;4.03;2.70;;;;;;;-145.69;100.00;72065.06;5074408;28;20194;-80
2022/07/06 02:03:55;;;;;;;8.30;3.50;;;;;;;-145.69;100.00;72071.03;5073473;28;20942;-80
2022/07/06 02:06:21;;;;;;;12.93;3.30;;;;;;;-145.69;100.00;72063.09;5073653;28;20672;-81
2022/07/06 02:08:47;;;;;;;4.57;2.60;;;;;;;-145.69;100.00;72063.09;5074047;28;20205;-80
2022/07/06 02:11:14;;;;;;;6.73;3.00;;;;;;;-145.69;100.00;72079.00;5074316;28;20206;-79
2022/07/06 02:13:42;;;;;;;6.40;2.70;;;;;;;-145.69;100.00;72094.94;5074160;28;20191;-79
2022/07/06 02:16:08;;;;;;;7.97;2.80;;;;;;;-145.69;100.00;72104.88;5074025;28;20199;-80
2022/07/06 02:18:35;;;;;;;6.00;3.10;;;;;;;-145.69;100.00;72106.88;5074286;28;20203;-80
2022/07/06 02:21:01;;;;;;;9.67;3.40;;;;;;;-145.69;100.00;72106.88;5074002;28;20206;-80
2022/07/06 02:23:28;;;;;;;6.53;3.23;;;;;;;-145.69;100.00;72118.81;5074207;28;20202;-80
2022/07/06 02:25:54;;;;;;;5.60;2.97;;;;;;;-145.69;100.00;72122.78;5073776;28;20195;-80
2022/07/06 02:28:21;;;;;;;4.90;3.07;;;;;;;-145.69;100.00;72142.69;5074228;28;20226;-80
2022/07/06 02:30:49;;;;;;;7.18;3.35;;;;;;;-145.69;100.00;72146.69;5073977;28;20445;-79
2022/07/06 02:33:15;;;;;;;7.03;3.10;;;;;;;-145.69;100.00;72150.66;5074051;28;20194;-80
2022/07/06 02:35:42;;;;;;;7.20;3.30;;;;;;;-145.69;100.00;72158.63;5063514;28;20200;-80
2022/07/06 02:38:09;;;;;;;9.73;3.30;;;;;;;-145.69;100.00;72156.63;5059075;28;20195;-79
2022/07/06 02:40:36;;;;;;;7.47;3.80;;;;;;;-145.69;100.00;72166.56;5073961;28;20198;-80
2022/07/06 02:43:03;;;;;;;4.57;3.70;;;;;;;-145.69;100.00;72166.56;5073802;28;20567;-80
2022/07/06 02:45:30;;;;;;;6.07;3.60;;;;;;;-145.69;100.00;72158.63;5073812;28;20202;-80
2022/07/06 02:47:57;;;;;;;5.80;3.80;;;;;;;-145.69;100.00;72154.63;5036325;28;1060510;-79
2022/07/06 02:50:24;;;;;;;5.13;3.47;;;;;;;-145.69;100.00;72160.59;5074619;28;20557;-80
2022/07/06 02:52:51;;;;;;;6.80;3.40;;;;;;;-145.69;100.00;72166.56;5074489;28;20203;-80
2022/07/06 02:55:18;;;;;;;8.70;4.03;;;;;;;-145.69;100.00;72170.56;5074595;28;20549;-80
2022/07/06 02:57:44;;;;;;;8.03;3.53;;;;;;;-145.69;100.00;72174.53;5074568;28;20234;-80
2022/07/06 03:00:11;;;;;;;8.30;3.73;;;;;;;-145.69;100.00;72190.47;5074373;28;20206;-80
2022/07/06 03:02:38;;;;;;;9.13;3.70;;;;;;;-145.69;100.00;72206.38;5074201;28;20201;-80
2022/07/06 03:05:07;;;;;;;8.67;3.83;;;;;;;-145.69;100.00;72202.41;5074570;28;20198;-79
2022/07/06 03:07:33;;;;;;;9.83;3.83;;;;;;;-145.69;100.00;72216.34;5074058;28;20234;-79
2022/07/06 03:10:00;;;;;;;8.67;4.53;;;;;;;-145.69;100.00;72212.34;5074407;28;20206;-80
2022/07/06 03:12:26;;;;;;;6.73;4.03;;;;;;;-145.69;100.00;72226.28;5074283;28;20198;-80
2022/07/06 03:14:52;;;;;;;8.83;4.43;;;;;;;-145.69;100.00;72214.34;5074013;28;20199;-80
2022/07/06 03:17:19;;;;;;;10.33;4.23;;;;;;;-145.69;100.00;72214.34;5073344;28;20230;-80
2022/07/06 03:19:45;;;;;;;5.93;4.37;;;;;;;-145.69;100.00;72200.41;5074053;28;20202;-80
2022/07/06 03:22:13;;;;;;;7.07;4.47;;;;;;;-145.69;100.00;72212.34;5073662;28;20203;-80
2022/07/06 03:24:40;;;;;;;5.37;4.00;;;;;;;-145.69;100.00;72224.28;5072941;28;20226;-79
2022/07/06 03:27:06;;;;;;;8.73;3.87;;;;;;;-145.69;100.00;72230.25;5074012;28;20233;-80
2022/07/06 03:29:33;;;;;;;7.13;4.07;;;;;;;-145.69;100.00;72236.22;5073841;28;20209;-80
2022/07/06 03:32:00;;;;;;;9.87;4.00;;;;;;;-145.69;100.00;72242.22;5073750;28;20195;-80
2022/07/06 03:34:26;;;;;;;6.77;4.03;;;;;;;-145.69;100.00;72236.22;5073553;28;20203;-80
2022/07/06 03:36:53;;;;;;;6.57;4.03;;;;;;;-145.69;100.00;72230.25;5074117;28;20202;-80
2022/07/06 03:39:21;;;;;;;8.50;4.43;;;;;;;-145.69;100.00;72230.25;5073490;28;20205;-80
2022/07/06 03:41:47;;;;;;;6.93;4.47;;;;;;;-145.69;100.00;72232.25;5073114;28;20546;-80
2022/07/06 03:44:14;;;;;;;7.43;4.60;;;;;;;-145.69;100.00;72236.22;5073483;28;20218;-80
2022/07/06 03:46:40;;;;;;;7.77;4.40;;;;;;;-145.69;100.00;72222.31;5073341;28;20206;-80
2022/07/06 03:49:06;;;;;;;8.30;4.40;;;;;;;-145.69;100.00;72228.28;5073220;28;20202;-79
2022/07/06 03:51:33;;;;;;;4.87;4.00;;;;;;;-145.69;100.00;72230.25;5073574;28;20203;-79
2022/07/06 03:53:59;;;;;;;7.33;4.30;;;;;;;-145.69;100.00;72232.25;5073300;28;20191;-79
2022/07/06 03:56:32;;;;;;;12.00;4.53;;;;;;;-145.69;100.00;72218.31;5073630;28;20203;-80
2022/07/06 03:59:01;;;;;;;7.03;4.60;;;;;;;-145.69;100.00;72206.38;5073502;28;20332;-80
2022/07/06 04:01:28;;;;;;;6.47;4.83;;;;;;;-145.69;100.00;72204.38;5073288;28;20268;-80
2022/07/06 04:03:54;;;;;;;8.83;5.23;;;;;;;-145.69;100.00;72192.44;5072931;28;20642;-81
2022/07/06 04:06:21;;;;;;;7.30;4.50;;;;;;;-145.69;100.00;72190.47;5073446;28;20207;-81
2022/07/06 04:08:47;;;;;;;6.77;4.40;;;;;;;-145.69;100.00;72194.44;5073495;28;20236;-80
2022/07/06 04:11:14;;;;;;;5.43;3.80;;;;;;;-145.69;100.00;72204.38;5073216;28;20203;-80
2022/07/06 04:13:42;;;;;;;4.73;3.43;;;;;;;-145.69;100.00;72210.38;5072875;28;20652;-81
2022/07/06 04:16:08;;;;;;;7.83;4.07;;;;;;;-145.69;100.00;72210.38;5072999;28;20203;-80
2022/07/06 04:18:35;;;;;;;6.27;4.20;;;;;;;-145.69;100.00;72206.38;5073242;28;20209;-80
2022/07/06 04:21:02;;;;;;;5.60;3.90;;;;;;;-145.69;100.00;72202.41;5072953;28;20661;-80
2022/07/06 04:23:29;;;;;;;9.77;4.03;;;;;;;-145.69;100.00;72196.44;5073248;28;20214;-80
2022/07/06 04:25:55;;;;;;;7.30;4.70;;;;;;;-145.69;100.00;72186.47;5072710;28;20665;-80
2022/07/06 04:28:21;;;;;;;13.53;4.90;;;;;;;-145.69;100.00;72178.53;5072512;28;20233;-80
2022/07/06 04:30:49;;;;;;;9.53;4.23;;;;;;;-145.69;100.00;72174.53;5072715;28;20222;-80
2022/07/06 04:33:16;;;;;;;5.80;4.30;;;;;;;-145.69;100.00;72166.56;5070996;28;20210;-79
2022/07/06 04:35:42;;;;;;;6.17;4.00;;;;;;;-145.69;100.00;72164.59;5053076;28;20206;-80
2022/07/06 04:38:09;;;;;;;6.77;3.83;;;;;;;-145.69;100.00;72156.63;5052889;28;20570;-80
2022/07/06 04:40:35;;;;;;;9.07;4.33;;;;;;;-145.69;100.00;72142.69;5070281;28;20198;-80
2022/07/06 04:43:01;;;;;;;6.37;4.10;;;;;;;-145.69;100.00;72132.75;5072987;28;20210;-80
2022/07/06 04:45:28;;;;;;;7.13;4.10;;;;;;;-145.69;100.00;72112.84;5072698;28;20203;-80
2022/07/06 04:47:56;;;;;;;8.20;4.10;;;;;;;-145.69;100.00;72112.84;5072336;28;20697;-80
2022/07/06 04:50:22;;;;;;;5.50;3.40;;;;;;;-145.69;100.00;72106.88;5072490;28;20681;-80
2022/07/06 04:52:49;;;;;;;5.97;4.00;;;;;;;-145.69;100.00;72086.97;5072912;28;20199;-80
2022/07/06 04:55:15;;;;;;;5.67;3.63;;;;;;;-145.69;100.00;72084.97;5072676;28;20214;-80
2022/07/06 04:57:42;;;;;;;6.97;3.60;;;;;;;-145.69;100.00;72071.03;5072669;28;20684;-81
2022/07/06 05:00:09;;;;;;;4.23;3.50;;;;;;;-145.69;100.00;72061.09;5072163;28;20198;-80
2022/07/06 05:02:36;;;;;;;5.50;3.50;;;;;;;-145.69;100.00;72045.16;5072741;28;20205;-80
2022/07/06 05:05:05;;;;;;;5.03;3.63;;;;;;;-145.69;100.00;72037.22;5072638;28;20241;-80
2022/07/06 05:07:33;;;;;;;9.30;3.50;;;;;;;-145.69;100.00;72027.25;5072517;28;20223;-80
2022/07/06 05:10:00;;;;;;;7.43;3.37;;;;;;;-145.69;100.00;72015.31;5072462;28;20206;-80
2022/07/06 05:12:26;;;;;;;4.93;3.40;;;;;;;-145.69;100.00;72011.34;5072150;28;20206;-80
2022/07/06 05:14:53;;;;;;;6.30;3.03;;;;;;;-145.69;100.00;71999.41;5072657;28;20195;-80
2022/07/06 05:17:19;;;;;;;4.37;3.07;;;;;;;-145.69;100.00;71979.50;5072410;28;20199;-80
2022/07/06 05:19:46;;;;;;;5.70;3.07;;;;;;;-145.69;100.00;71965.56;5072488;28;20214;-80
2022/07/06 05:22:13;;;;;;;4.43;3.20;;;;;;;-145.69;100.00;71951.63;5072484;28;20203;-80
2022/07/06 05:24:40;;;;;;;4.43;3.20;;;;;;;-145.69;100.00;71931.72;5072116;28;20658;-80
2022/07/06 05:27:06;;;;;;;3.10;2.43;;;;;;;-145.69;100.00;71911.84;5072357;28;20203;-80
2022/07/06 05:29:33;;;;;;;6.53;3.50;;;;;;;-145.69;100.00;71891.94;5072211;28;20697;-81
2022/07/06 05:31:59;;;;;;;6.27;3.30;;;;;;;-145.69;100.00;71866.06;5072560;28;20206;-81
2022/07/06 05:34:26;;;;;;;3.47;2.83;;;;;;;-145.69;100.00;71838.19;5072483;28;20199;-80
2022/07/06 05:36:52;;;;;;;4.82;3.08;;;;;;;-145.69;100.00;71806.34;5071955;28;20191;-81
2022/07/06 05:39:22;;;;;;;6.32;2.53;;;;;;;-145.69;100.00;71780.50;5072323;28;20255;-82
2022/07/06 05:41:49;;;;;;;4.13;2.60;;;;;;;-145.69;100.00;71748.66;5075154;28;20210;-82
2022/07/06 05:44:15;;;;;;;3.67;2.30;;;;;;;-145.69;100.00;71696.91;5076071;28;20203;-82
2022/07/06 05:46:42;;;;;;;4.30;2.88;;;;;;;-145.69;92.03;71613.31;5076053;28;20198;-81
2022/07/06 05:51:53;;;;;;;6.57;2.88;;;;;;;-145.69;83.38;71472.03;5076052;28;20201;-79
2022/07/06 05:54:20;;;;;;;4.70;2.28;;;;;;;-145.69;76.93;71398.41;5075898;28;20210;-81
2022/07/06 05:56:47;;;;;;;6.65;2.40;;;;;;;-145.69;78.48;71432.25;5075959;28;20210;-80
2022/07/06 05:59:13;;;;;;;2.85;1.80;;;;;;;-145.69;76.36;71318.81;5075761;28;20289;-80
2022/07/06 06:01:40;;;;;;;5.22;2.10;;;;;;;-145.69;69.98;71235.25;5075290;28;20657;-80
2022/07/06 06:04:07;;;;;;;7.22;2.38;;;;;;;-145.69;69.87;71281.00;5075497;28;20202;-79
2022/07/06 06:06:33;;;;;;;4.90;2.25;;;;;;;-145.69;71.96;71382.50;5075714;28;20210;-80
2022/07/06 06:09:00;;;;;;;4.70;2.05;;;;;;;-145.69;76.23;71412.34;5075507;28;20238;-81
2022/07/06 06:11:27;;;;;;;3.35;2.20;;;;;;;-145.69;76.19;71398.41;5075540;28;20202;-79
2022/07/06 06:13:54;;;;;;;5.72;1.95;;;;;;;-145.69;75.30;71414.34;5075212;28;20195;-80
2022/07/06 06:16:20;;;;;;;3.80;2.03;;;;;;;-145.69;75.67;71414.34;5075344;28;20210;-80
2022/07/06 06:18:47;;;;;;;3.72;1.63;;;;;;;-145.69;74.08;71374.53;5075276;28;20206;-81
2022/07/06 06:21:13;;;;;;;3.30;2.17;;;;;;;-145.69;69.64;71352.66;5075887;28;20194;-81
2022/07/06 06:23:39;;;;;;;7.40;2.22;;;;;;;-145.69;76.88;71466.06;5075976;28;20210;-80
2022/07/06 06:26:06;;;;;;;6.72;2.40;;;;;;;-145.69;75.33;71485.97;5075102;28;20203;-80
2022/07/06 06:28:34;;;;;;;6.72;1.83;;;;;;;-145.69;75.92;71432.25;5075024;28;20253;-80
2022/07/06 06:31:00;;;;;;;5.13;2.47;;;;;;;-145.69;73.29;71390.47;5075556;28;20195;-80
2022/07/06 06:33:26;;;;;;;5.57;1.88;;;;;;;-145.69;77.03;71434.22;5075043;28;20195;-80
2022/07/06 06:35:54;;;;;;;3.08;1.90;;;;;;;-145.69;71.98;71342.69;5074996;28;20203;-80
2022/07/06 06:38:25;;;;;;;6.70;2.17;;;;;;;-145.69;69.79;71334.75;5074788;28;20230;-79
2022/07/06 06:40:52;;;;;;;3.05;1.50;;;;;;;-145.69;73.48;71322.81;5061602;28;20208;-80
2022/07/06 06:43:18;;;;;;;5.82;1.80;;;;;;;-145.69;69.11;71296.94;5054778;28;20203;-82
2022/07/06 06:45:46;;;;;;;4.53;1.95;;;;;;;-145.69;67.81;71275.03;5054804;28;20206;-81
2022/07/06 06:48:12;;;;;;;4.43;2.35;;;;;;;-145.69;66.75;71310.84;5054297;28;20235;-81
2022/07/06 06:50:39;;;;;;;2.67;2.00;;;;;;;-145.69;68.12;71296.94;5071383;28;20191;-80
2022/07/06 06:53:05;;;;;;;7.80;2.20;;;;;;;-145.69;72.30;71392.44;5073591;28;20222;-80
2022/07/06 06:55:32;;;;;;;9.02;2.50;;;;;;;-145.69;74.45;71444.19;5074698;28;20228;-80
2022/07/06 06:57:58;;;;;;;6.75;2.45;;;;;;;-145.69;75.84;71448.16;5074556;28;20203;-79
2022/07/06 07:00:25;;;;;;;5.25;2.22;;;;;;;-145.69;76.32;71444.19;5073127;28;20434;-80
2022/07/06 07:02:53;;;;;;;8.75;2.97;;;;;;;-145.69;75.15;71444.19;5074302;28;20214;-79
2022/07/06 07:05:19;;;;;;;8.43;2.45;;;;;;;-145.69;75.18;71442.19;5074579;28;20202;-79
2022/07/06 07:07:46;;;;;;;4.35;2.15;;;;;;;-145.69;73.74;71390.47;5074353;28;20245;-79
2022/07/06 07:10:12;;;;;;;5.93;2.47;;;;;;;-145.69;73.64;71390.47;5074386;28;20236;-80
2022/07/06 07:12:44;;;;;;;5.95;2.40;;;;;;;-145.69;72.55;71370.56;5073868;28;20238;-80
2022/07/06 07:15:10;;;;;;;4.13;2.10;;;;;;;-145.69;75.24;71350.66;5074172;28;20577;-79
2022/07/06 07:17:37;;;;;;;5.57;2.40;;;;;;;-145.69;75.11;71350.66;5074034;28;20242;-80
2022/07/06 07:20:08;;;;;;;2.58;2.00;;;;;;;-145.69;74.10;71326.78;5074236;28;20206;-79
2022/07/06 07:22:34;;;;;;;3.72;2.25;;;;;;;-145.69;73.27;71330.75;5073961;28;20199;-79
2022/07/06 07:25:01;;;;;;;2.92;2.10;;;;;;;-145.69;72.70;71318.81;5073887;28;20195;-79
2022/07/06 07:27:28;;;;;;;5.82;2.60;;;;;;;-145.69;74.54;71316.84;5073839;28;20645;-79
2022/07/06 07:29:54;;;;;;;5.15;2.05;;;;;;;-145.69;73.56;71314.84;5073747;28;20317;-79
2022/07/06 07:32:23;;;;;;;5.93;2.50;;;;;;;-145.69;73.40;71320.81;5074109;28;20553;-81
2022/07/06 07:34:50;;;;;;;4.10;2.30;;;;;;;-145.69;75.03;71334.75;5073758;28;20202;-79
2022/07/06 07:37:18;;;;;;;6.43;2.53;;;;;;;-145.69;72.82;71332.75;5073653;28;20191;-79
2022/07/06 07:39:44;;;;;;;6.00;2.45;;;;;;;-145.69;76.19;71372.53;5073718;28;20199;-79
2022/07/06 07:42:13;;;;;;;6.85;2.28;;;;;;;-145.69;75.66;71360.59;5073657;28;20203;-80
2022/07/06 07:44:40;;;;;;;7.15;2.58;;;;;;;-145.69;75.99;71342.69;5073476;28;20199;-78
2022/07/06 07:47:07;;;;;;;5.30;2.28;;;;;;;-145.69;74.21;71314.84;5073883;28;20207;-78
2022/07/06 07:49:33;;;;;;;5.57;2.13;;;;;;;-145.69;74.47;71302.91;5072923;28;20234;-76
2022/07/06 07:52:00;;;;;;;3.45;2.30;;;;;;;-145.69;73.77;71298.94;5073357;28;20202;-80
2022/07/06 07:54:28;;;;;;;4.13;2.35;;;;;;;-145.69;73.78;71298.94;5073333;28;20230;-80
2022/07/06 07:56:55;;;;;;;5.15;2.00;;;;;;;-145.69;72.68;71275.03;5073354;28;20225;-81
2022/07/06 07:59:22;;;;;;;4.10;2.25;;;;;;;-145.69;69.46;71257.13;5073614;28;20256;-79
2022/07/06 08:01:48;;;;;;;8.98;2.50;;;;;;;-145.69;68.37;71271.06;5072638;28;20205;-80
2022/07/06 08:04:15;;;;;;;5.38;2.78;;;;;;;-145.69;73.03;71251.16;5072696;28;20194;-80
2022/07/06 08:06:43;;;;;;;6.15;2.40;;;;;;;-145.69;74.05;71223.31;5072894;28;20649;-78
2022/07/06 08:09:09;;;;;;;3.92;2.17;;;;;;;-145.69;69.65;71185.50;5072753;28;20253;-77
2022/07/06 08:11:43;;;;;;;8.32;2.00;;;;;;;-145.69;69.19;71207.38;5073264;28;20206;-77
2022/07/06 08:14:10;;;;;;;10.48;2.50;;;;;;;-145.69;68.87;71231.28;5073175;28;20205;-76
2022/07/06 08:16:36;;;;;;;5.55;2.47;;;;;;;-145.69;69.68;71209.38;5073160;28;20203;-78
2022/07/06 08:19:03;;;;;;;6.30;2.42;;;;;;;-145.69;70.42;71203.41;5072884;28;20194;-77
2022/07/06 08:21:29;;;;;;;5.57;2.17;;;;;;;-145.69;68.09;71255.16;5072992;28;20572;-77
2022/07/06 08:24:00;;;;;;;4.28;2.17;;;;;;;-145.69;68.12;71243.22;5073003;28;20221;-77
2022/07/06 08:26:32;;;;;;;5.65;2.30;;;;;;;-145.69;71.02;71245.19;5072912;28;20560;-77
2022/07/06 08:29:02;;;;;;;5.82;2.28;;;;;;;-145.69;72.93;71235.25;5072792;28;20697;-77
2022/07/06 08:31:31;;;;;;;8.90;1.85;;;;;;;-145.69;68.22;71191.47;5072969;28;20203;-76
2022/07/06 08:33:58;;;;;;;4.90;2.47;;;;;;;-145.69;66.94;71195.47;5072967;28;20198;-77
2022/07/06 08:36:27;;;;;;;9.90;2.25;;;;;;;-145.69;63.86;71217.34;5072527;28;20233;-78
2022/07/06 08:38:55;;;;;;;4.47;2.35;;;;;;;-145.69;65.46;71251.16;5072185;28;20549;-78
2022/07/06 08:41:23;;;;;;;5.20;2.58;;;;;;;-145.69;65.23;71247.19;5072855;28;20199;-77
2022/07/06 08:43:51;;;;;;;4.90;2.15;;;;;;;-145.69;65.81;71225.31;5072977;28;20194;-77
2022/07/06 08:46:22;;;;;;;4.03;2.15;;;;;;;-145.69;69.60;71181.53;5072934;28;20203;-77
2022/07/06 08:48:50;;;;;;;6.28;2.10;;;;;;;-145.69;65.71;71181.53;5052215;28;20238;-77
2022/07/06 08:51:17;;;;;;;5.47;1.85;;;;;;;-145.69;64.16;71203.41;5071227;28;20527;-77
2022/07/06 08:53:48;;;;;;;6.22;2.10;;;;;;;-145.69;74.60;71173.56;5072924;28;20198;-75
2022/07/06 08:56:16;;;;;;;6.35;2.17;;;;;;;-145.69;62.41;71175.56;5072795;28;20202;-77
2022/07/06 08:58:43;;;;;;;4.32;2.17;;;;;;;-145.69;64.07;71201.41;5072571;28;20206;-77
2022/07/06 09:01:10;;;;;;;10.88;2.22;;;;;;;-145.69;67.50;71183.50;5072426;28;20199;-77
2022/07/06 09:03:43;;;;;;;4.88;2.40;;;;;;;-145.69;60.07;71203.41;5072525;28;20542;-76
2022/07/06 09:06:10;;;;;;;2.35;1.80;;;;;;;-145.69;60.41;71187.50;5072837;28;20233;-76
2022/07/06 09:08:37;;;;;;;4.95;2.10;;;;;;;-145.69;62.87;71143.72;5072655;28;20569;-77
2022/07/06 09:11:04;;;;;;;6.43;2.10;;;;;;;-145.69;69.31;71115.88;5072257;28;20252;-76
2022/07/06 09:13:30;;;;;;;9.88;1.80;;;;;;;-145.69;59.46;71135.75;5072137;28;20203;-75
2022/07/06 09:16:09;;;;;;;3.25;2.00;;;;;;;-145.69;57.83;71143.72;5074380;28;20293;-78
2022/07/06 09:18:38;;;;;;;7.53;1.90;;;;;;;-145.69;58.21;71137.75;5076596;28;20207;-78
2022/07/06 09:21:07;;;;;;;3.40;1.88;;;;;;;-145.69;57.73;71123.81;5076409;28;20293;-78
2022/07/06 09:23:34;;;;;;;3.50;1.60;;;;;;;-145.69;55.39;71113.88;5076158;28;20199;-79
2022/07/06 09:26:06;;;;;;;5.25;1.73;;;;;;;-145.69;53.50;71095.97;5076410;28;20198;-78
2022/07/06 09:28:47;;;;;;;3.35;1.70;;;;;;;-145.69;57.06;71088.00;5076022;28;20198;-78
2022/07/06 09:31:20;;;;;;;4.30;1.80;;;;;;;-145.69;53.34;71105.91;5076157;28;20667;-77
2022/07/06 09:34:07;;;;;;;7.75;1.83;;;;;;;-145.69;54.55;71109.91;5076269;28;20199;-78
2022/07/06 09:36:38;;;;;;;9.27;2.05;;;;;;;-145.69;56.40;71080.06;5075896;28;20195;-79
2022/07/06 09:39:18;;;;;;;10.32;1.90;;;;;;;-145.69;54.21;71052.19;5075683;28;20195;-81
2022/07/06 09:41:47;;;;;;;3.80;1.60;;;;;;;-145.69;56.42;71036.28;5075776;28;20713;-78
2022/07/06 09:44:22;;;;;;;3.60;1.70;;;;;;;-145.69;55.95;71022.34;5076025;28;20305;-76
2022/07/06 09:46:49;;;;;;;5.60;2.20;;;;;;;-145.69;55.87;71024.34;5075890;28;20202;-78
2022/07/06 09:49:22;;;;;;;6.22;1.75;;;;;;;-145.69;56.97;71028.31;5075308;28;20242;-75
2022/07/06 09:51:50;;;;;;;7.03;2.20;;;;;;;-145.69;57.39;71046.22;5075887;28;20211;-75
2022/07/06 09:54:20;;;;;;;6.57;2.17;;;;;;;-145.69;55.31;71072.09;5075866;28;20206;-78
2022/07/06 09:56:51;;;;;;;3.75;1.80;;;;;;;-145.69;56.83;71084.03;5075625;28;20584;-77
2022/07/06 09:59:20;;;;;;;2.30;1.55;;;;;;;-145.69;55.72;71060.16;5075658;28;20202;-77
2022/07/06 10:01:50;;;;;;;6.18;1.90;;;;;;;-145.69;56.58;71082.03;5075430;28;20190;-75
2022/07/06 10:04:23;;;;;;;4.22;1.70;;;;;;;-145.69;59.68;71044.22;5075085;28;20206;-77
2022/07/06 10:06:50;;;;;;;5.03;1.60;;;;;;;-145.69;56.38;71040.25;5075797;28;20199;-76
2022/07/06 10:09:19;;;;;;;5.10;1.50;;;;;;;-145.69;54.38;70988.53;5075470;28;20229;-76
2022/07/06 10:11:53;;;;;;;3.67;1.83;;;;;;;-145.69;52.15;71030.31;5075403;28;20607;-76
2022/07/06 10:14:31;;;;;;;6.32;1.80;;;;;;;-145.69;53.79;70990.50;5075059;28;20207;-79
2022/07/06 10:17:05;;;;;;;3.38;1.95;;;;;;;-145.69;51.43;71020.34;5075831;28;20202;-78
2022/07/06 10:19:34;;;;;;;5.35;2.20;;;;;;;-145.69;52.54;71014.38;5075345;28;20684;-77
2022/07/06 10:22:05;;;;;;;2.53;1.70;;;;;;;-145.69;53.34;70960.66;5075306;28;20278;-79
2022/07/06 10:24:34;;;;;;;6.15;1.63;;;;;;;-145.69;51.66;70956.69;5074731;28;20199;-79
2022/07/06 10:27:00;;;;;;;6.75;1.60;;;;;;;-145.69;50.88;70918.88;5071011;28;20198;-76
2022/07/06 10:29:27;;;;;;;5.63;1.60;;;;;;;-145.69;49.83;70930.81;5055137;28;20231;-81
2022/07/06 10:31:56;;;;;;;4.45;1.65;;;;;;;-145.69;49.53;70906.94;5069595;28;20741;-77
2022/07/06 10:34:23;;;;;;;2.47;1.33;;;;;;;-145.69;47.27;70928.84;5074704;28;20448;-76
2022/07/06 10:36:53;;;;;;;7.72;1.80;;;;;;;-145.69;50.16;70956.69;5075172;28;20202;-76
2022/07/06 10:42:42;;;;;;;4.93;1.65;;;;;;;-145.69;50.44;70944.75;5054699;28;20261;-76
2022/07/06 10:45:09;;;;;;;7.15;1.83;;;;;;;-145.69;47.02;70928.84;5054601;28;20681;-77
2022/07/06 10:47:36;;;;;;;5.10;1.50;;;;;;;-145.69;47.50;70964.66;5061699;28;20195;-77
2022/07/06 10:50:04;;;;;;;6.68;1.80;;;;;;;-145.69;47.79;70968.63;5074268;28;20230;-76
2022/07/06 10:52:50;;;;;;;5.72;1.70;;;;;;;-145.69;49.61;70932.81;5074463;28;20203;-79
2022/07/06 10:55:30;;;;;;;4.15;1.60;;;;;;;-145.69;47.73;70970.63;5058874;28;20203;-77
2022/07/06 10:57:56;;;;;;;4.70;1.50;;;;;;;-145.69;49.79;70932.81;5054351;28;20226;-77
2022/07/06 11:00:23;;;;;;;4.10;1.63;;;;;;;-145.69;51.02;70895.00;5068307;28;20205;-77
2022/07/06 11:02:50;;;;;;;3.70;1.67;;;;;;;-145.69;52.16;70857.22;5074514;28;20282;-77
2022/07/06 11:05:41;;;;;;;6.38;1.95;;;;;;;-145.69;46.71;70781.59;5074091;28;20707;-76
2022/07/06 11:08:11;;;;;;;3.13;1.60;;;;;;;-145.69;47.69;70741.81;5074217;28;20206;-79
2022/07/06 11:10:48;;;;;;;3.20;1.05;;;;;;;-145.69;47.25;70713.97;5073752;28;20223;-78
2022/07/06 11:13:26;;;;;;;7.97;1.50;;;;;;;-145.69;45.41;70725.91;5074287;28;20229;-78
2022/07/06 11:15:52;;;;;;;3.85;1.48;;;;;;;-145.69;44.55;70765.69;5074182;28;20209;-75
2022/07/06 11:18:20;;;;;;;6.05;1.50;;;;;;;-145.69;45.01;70777.63;5073745;28;20683;-76
2022/07/06 11:21:15;;;;;;;2.25;1.48;;;;;;;-145.69;46.59;70827.38;5073808;28;20202;-77